createdAt,value
2017-08-29T00:01:54.680Z,79.20
2017-08-29T00:04:22.279Z,79.30
2017-08-29T00:06:49.886Z,79.10
2017-08-29T00:09:17.486Z,79.00
2017-08-29T00:11:45.103Z,79.10
2017-08-29T00:14:12.680Z,79.00
2017-08-29T00:16:40.241Z,79.10
2017-08-29T00:19:07.871Z,79.40
2017-08-29T00:21:35.446Z,79.40
2017-08-29T00:24:03.044Z,79.10
2017-08-29T00:26:30.628Z,79.40
2017-08-29T00:28:58.222Z,79.50
2017-08-29T00:31:25.899Z,79.70
2017-08-29T00:33:53.511Z,79.50
2017-08-29T00:36:21.101Z,79.40
2017-08-29T00:38:48.675Z,79.50
2017-08-29T00:41:16.290Z,79.30
2017-08-29T00:43:43.888Z,79.70
2017-08-29T00:46:11.486Z,79.60
2017-08-29T00:48:39.069Z,79.50
2017-08-29T00:51:06.663Z,79.80
2017-08-29T00:53:34.232Z,79.90
2017-08-29T00:56:01.835Z,79.70
2017-08-29T00:58:29.451Z,79.20
2017-08-29T01:00:57.010Z,79.60
2017-08-29T01:03:24.610Z,80.00
2017-08-29T01:05:52.181Z,79.80
2017-08-29T01:08:19.787Z,80.00
2017-08-29T01:10:47.377Z,79.90
2017-08-29T01:13:14.983Z,80.10
2017-08-29T01:15:42.623Z,80.40
2017-08-29T01:18:10.221Z,80.20
2017-08-29T01:20:37.800Z,80.10
2017-08-29T01:23:05.370Z,80.00
2017-08-29T01:25:32.948Z,80.60
2017-08-29T01:28:00.543Z,80.50
2017-08-29T01:30:28.148Z,80.80
2017-08-29T01:32:55.765Z,81.10
2017-08-29T01:35:23.349Z,80.70
2017-08-29T01:37:50.930Z,80.70
2017-08-29T01:40:18.523Z,81.10
2017-08-29T01:42:46.122Z,80.60
2017-08-29T01:45:13.711Z,80.40
2017-08-29T01:47:41.297Z,80.10
2017-08-29T01:50:08.896Z,80.30
2017-08-29T01:52:36.495Z,80.30
2017-08-29T01:55:04.106Z,80.40
2017-08-29T01:57:31.662Z,80.20
2017-08-29T01:59:59.263Z,80.20
2017-08-29T02:02:26.894Z,80.30
2017-08-29T02:04:54.477Z,80.60
2017-08-29T02:07:22.082Z,80.60
2017-08-29T02:09:49.724Z,80.70
2017-08-29T02:12:17.327Z,80.90
2017-08-29T02:14:44.885Z,81.00
2017-08-29T02:17:12.459Z,81.40
2017-08-29T02:19:40.055Z,81.30
2017-08-29T02:22:07.651Z,81.30
2017-08-29T02:24:35.223Z,81.50
2017-08-29T02:27:02.826Z,82.00
2017-08-29T02:29:30.405Z,81.70
2017-08-29T02:31:57.982Z,81.80
2017-08-29T02:34:25.546Z,81.60
2017-08-29T02:36:53.115Z,81.80
2017-08-29T02:39:20.695Z,81.90
2017-08-29T02:41:48.293Z,81.90
2017-08-29T02:44:15.892Z,82.10
2017-08-29T02:46:43.502Z,82.20
2017-08-29T02:49:11.082Z,82.00
2017-08-29T02:51:38.655Z,81.70
2017-08-29T02:54:06.243Z,82.10
2017-08-29T02:56:33.836Z,81.70
2017-08-29T02:59:01.437Z,82.20
2017-08-29T03:01:29.051Z,82.30
2017-08-29T03:03:56.670Z,81.90
2017-08-29T03:06:24.255Z,82.20
2017-08-29T03:08:51.891Z,81.90
2017-08-29T03:11:20.473Z,82.20
2017-08-29T03:13:48.029Z,82.30
2017-08-29T03:16:15.613Z,82.20
2017-08-29T03:18:43.199Z,82.90
2017-08-29T03:21:10.767Z,81.90
2017-08-29T03:23:38.370Z,82.10
2017-08-29T03:26:05.950Z,82.20
2017-08-29T03:28:33.536Z,82.40
2017-08-29T03:31:01.094Z,82.30
2017-08-29T03:33:28.645Z,82.10
2017-08-29T03:35:57.095Z,82.10
2017-08-29T03:38:24.695Z,82.10
2017-08-29T03:40:52.242Z,82.10
2017-08-29T03:43:19.835Z,81.90
2017-08-29T03:45:47.403Z,82.10
2017-08-29T03:48:15.030Z,82.20
2017-08-29T03:50:42.630Z,82.10
2017-08-29T03:53:10.200Z,81.90
2017-08-29T03:55:37.755Z,81.90
2017-08-29T03:58:05.348Z,81.60
2017-08-29T04:00:32.933Z,81.30
2017-08-29T04:03:00.506Z,81.30
2017-08-29T04:05:28.107Z,81.20
2017-08-29T04:07:55.711Z,81.20
2017-08-29T04:10:23.282Z,80.70
2017-08-29T04:12:50.900Z,80.90
2017-08-29T04:15:19.261Z,80.80
2017-08-29T04:17:46.833Z,80.70
2017-08-29T04:20:15.148Z,80.70
2017-08-29T04:22:42.742Z,80.80
2017-08-29T04:25:10.315Z,80.40
2017-08-29T04:27:37.860Z,80.50
2017-08-29T04:30:05.480Z,80.60
2017-08-29T04:32:33.090Z,81.20
2017-08-29T04:35:00.669Z,80.70
2017-08-29T04:37:28.247Z,80.50
2017-08-29T04:39:55.843Z,80.50
2017-08-29T04:42:23.412Z,80.60
2017-08-29T04:44:51.798Z,80.50
2017-08-29T04:47:19.371Z,80.40
2017-08-29T04:49:46.987Z,80.70
2017-08-29T04:52:14.579Z,80.80
2017-08-29T04:54:42.169Z,80.50
2017-08-29T04:57:09.747Z,80.00
2017-08-29T04:59:37.340Z,80.10
2017-08-29T05:02:04.912Z,79.80
2017-08-29T05:04:32.529Z,80.10
2017-08-29T05:07:00.120Z,80.10
2017-08-29T05:09:27.731Z,79.80
2017-08-29T05:11:55.348Z,79.10
2017-08-29T05:14:22.919Z,78.90
2017-08-29T05:16:50.527Z,78.90
2017-08-29T05:19:18.219Z,79.40
2017-08-29T05:21:45.819Z,79.80
2017-08-29T05:24:13.419Z,79.60
2017-08-29T05:26:41.979Z,79.80
2017-08-29T05:29:09.538Z,79.30
2017-08-29T05:31:37.147Z,79.80
2017-08-29T05:34:04.730Z,79.40
2017-08-29T05:36:32.384Z,79.20
2017-08-29T05:38:59.960Z,78.50
2017-08-29T05:41:27.553Z,78.20
2017-08-29T05:43:55.147Z,77.40
2017-08-29T05:46:22.788Z,77.90
2017-08-29T05:48:50.409Z,78.40
2017-08-29T05:51:18.000Z,78.20
2017-08-29T05:53:45.616Z,77.60
2017-08-29T05:56:13.195Z,78.10
2017-08-29T05:58:40.784Z,78.10
2017-08-29T06:01:08.386Z,77.50
2017-08-29T06:03:36.002Z,78.00
2017-08-29T06:06:03.589Z,77.70
2017-08-29T06:08:31.199Z,77.40
2017-08-29T06:10:58.774Z,77.40
2017-08-29T06:13:26.358Z,77.30
2017-08-29T06:15:54.034Z,77.00
2017-08-29T06:18:21.622Z,77.20
2017-08-29T06:20:49.241Z,77.10
2017-08-29T06:23:16.819Z,76.60
2017-08-29T06:25:44.472Z,75.90
2017-08-29T06:28:12.092Z,75.40
2017-08-29T06:30:39.666Z,75.60
2017-08-29T06:33:07.390Z,75.50
2017-08-29T06:35:34.987Z,74.60
2017-08-29T06:38:02.571Z,75.40
2017-08-29T06:40:30.157Z,74.30
2017-08-29T06:42:57.758Z,75.00
2017-08-29T06:45:26.024Z,74.50
2017-08-29T06:47:53.599Z,74.00
2017-08-29T06:50:21.188Z,73.70
2017-08-29T06:52:48.795Z,73.10
2017-08-29T06:55:16.378Z,72.80
2017-08-29T06:57:43.972Z,72.40
2017-08-29T07:00:11.588Z,72.20
2017-08-29T07:02:39.189Z,72.20
2017-08-29T07:05:06.789Z,71.90
2017-08-29T07:07:34.373Z,71.60
2017-08-29T07:10:01.966Z,71.80
2017-08-29T07:12:29.592Z,72.10
2017-08-29T07:14:57.471Z,71.80
2017-08-29T07:17:25.070Z,71.90
2017-08-29T07:19:54.352Z,72.00
2017-08-29T07:22:21.952Z,71.00
2017-08-29T07:24:49.556Z,70.50
2017-08-29T07:27:17.142Z,70.60
2017-08-29T07:29:44.720Z,70.30
2017-08-29T07:32:12.977Z,70.60
2017-08-29T07:34:40.600Z,70.10
2017-08-29T07:37:08.206Z,70.50
2017-08-29T07:39:35.759Z,70.00
2017-08-29T07:42:03.371Z,69.40
2017-08-29T07:44:30.970Z,69.30
2017-08-29T07:46:58.581Z,69.50
2017-08-29T07:49:26.179Z,69.20
2017-08-29T07:51:53.796Z,69.30
2017-08-29T07:54:21.458Z,68.10
2017-08-29T07:56:49.076Z,67.60
2017-08-29T07:59:17.390Z,67.50
2017-08-29T08:01:44.971Z,67.80
2017-08-29T08:04:12.548Z,67.80
2017-08-29T08:06:40.172Z,67.10
2017-08-29T08:09:08.721Z,66.90
2017-08-29T08:11:36.328Z,67.10
2017-08-29T08:14:03.936Z,65.30
2017-08-29T08:16:31.556Z,65.00
2017-08-29T08:18:59.135Z,64.00
2017-08-29T08:21:26.772Z,63.80
2017-08-29T08:23:54.383Z,65.40
2017-08-29T08:26:21.979Z,64.40
2017-08-29T08:28:49.589Z,64.10
2017-08-29T08:31:17.172Z,63.80
2017-08-29T08:33:44.746Z,63.70
2017-08-29T08:36:12.372Z,63.80
2017-08-29T08:38:39.973Z,63.10
2017-08-29T08:41:07.594Z,63.60
2017-08-29T08:43:35.186Z,63.40
2017-08-29T08:46:02.815Z,62.80
2017-08-29T08:48:30.392Z,62.20
2017-08-29T08:50:57.985Z,62.00
2017-08-29T08:53:25.546Z,63.00
2017-08-29T08:55:53.143Z,61.30
2017-08-29T08:58:20.745Z,61.70
2017-08-29T09:00:48.337Z,61.60
2017-08-29T09:03:15.928Z,61.90
2017-08-29T09:05:44.147Z,60.60
2017-08-29T09:08:11.728Z,61.80
2017-08-29T09:10:39.319Z,59.70
2017-08-29T09:13:06.912Z,60.00
2017-08-29T09:15:34.515Z,60.60
2017-08-29T09:18:02.103Z,60.10
2017-08-29T09:20:29.717Z,61.20
2017-08-29T09:22:57.341Z,60.70
2017-08-29T09:25:24.960Z,59.60
2017-08-29T09:27:53.278Z,59.20
2017-08-29T09:30:20.869Z,59.10
2017-08-29T09:32:48.462Z,58.70
2017-08-29T09:35:16.070Z,59.00
2017-08-29T09:37:43.656Z,58.10
2017-08-29T09:40:11.247Z,58.20
2017-08-29T09:42:38.837Z,57.80
2017-08-29T09:45:06.472Z,59.00
2017-08-29T09:47:34.060Z,57.70
2017-08-29T09:50:02.610Z,57.60
2017-08-29T09:52:30.189Z,56.70
2017-08-29T09:54:57.863Z,56.70
2017-08-29T09:57:25.490Z,58.50
2017-08-29T09:59:53.128Z,56.20
2017-08-29T10:02:20.741Z,56.10
2017-08-29T10:04:48.335Z,57.00
2017-08-29T10:07:15.958Z,56.40
2017-08-29T10:09:43.551Z,57.10
2017-08-29T10:12:11.199Z,56.00
2017-08-29T10:14:38.789Z,56.50
2017-08-29T10:17:06.393Z,55.70
2017-08-29T10:19:34.044Z,55.30
2017-08-29T10:22:01.667Z,54.50
2017-08-29T10:24:29.254Z,53.20
2017-08-29T10:26:56.898Z,55.20
2017-08-29T10:29:24.530Z,55.70
2017-08-29T10:31:52.111Z,54.50
2017-08-29T10:34:20.250Z,53.40
2017-08-29T10:36:47.830Z,53.80
2017-08-29T10:39:15.438Z,53.40
2017-08-29T10:41:43.040Z,54.30
2017-08-29T10:44:11.478Z,51.60
2017-08-29T10:46:39.085Z,50.50
2017-08-29T10:49:06.678Z,50.10
2017-08-29T10:51:34.323Z,50.60
2017-08-29T10:54:01.938Z,49.70
2017-08-29T10:56:29.507Z,50.20
2017-08-29T10:58:57.086Z,49.30
2017-08-29T11:01:24.746Z,47.60
2017-08-29T11:03:52.352Z,47.30
2017-08-29T11:06:19.933Z,45.00
2017-08-29T11:08:47.507Z,44.40
2017-08-29T11:11:15.093Z,44.00
2017-08-29T11:13:42.695Z,45.40
2017-08-29T11:16:10.300Z,46.50
2017-08-29T11:18:38.021Z,46.10
2017-08-29T11:21:05.585Z,44.80
2017-08-29T11:23:33.188Z,45.00
2017-08-29T11:26:01.772Z,42.80
2017-08-29T11:28:29.466Z,43.50
2017-08-29T11:30:57.861Z,43.30
2017-08-29T11:33:25.466Z,43.20
2017-08-29T11:35:53.113Z,44.50
2017-08-29T11:38:20.759Z,44.20
2017-08-29T11:40:48.437Z,43.60
2017-08-29T11:43:16.039Z,42.40
2017-08-29T11:45:43.661Z,44.20
2017-08-29T11:48:11.257Z,43.50
2017-08-29T11:50:38.847Z,41.10
2017-08-29T11:53:06.450Z,41.70
2017-08-29T11:55:34.028Z,41.70
2017-08-29T11:58:01.731Z,41.10
2017-08-29T12:00:29.315Z,40.70
2017-08-29T12:02:57.189Z,42.80
2017-08-29T12:05:24.792Z,42.60
2017-08-29T12:07:52.369Z,41.70
2017-08-29T12:10:20.014Z,42.90
2017-08-29T12:12:47.595Z,43.10
2017-08-29T12:15:15.185Z,42.70
2017-08-29T12:17:42.799Z,40.40
2017-08-29T12:20:10.384Z,41.90
2017-08-29T12:22:37.984Z,43.30
2017-08-29T12:25:05.592Z,43.80
2017-08-29T12:27:33.164Z,44.00
2017-08-29T12:30:00.781Z,44.90
2017-08-29T12:32:28.402Z,43.60
2017-08-29T12:34:55.971Z,43.60
2017-08-29T12:37:23.553Z,43.90
2017-08-29T12:39:51.176Z,43.10
2017-08-29T12:42:18.784Z,43.40
2017-08-29T12:44:46.415Z,42.50
2017-08-29T12:47:14.032Z,43.60
2017-08-29T12:49:41.616Z,42.90
2017-08-29T12:52:09.188Z,42.20
2017-08-29T12:54:36.794Z,42.30
2017-08-29T12:57:04.399Z,42.90
2017-08-29T12:59:32.041Z,40.00
2017-08-29T13:01:59.657Z,41.70
2017-08-29T13:04:27.257Z,42.40
2017-08-29T13:06:54.865Z,42.30
2017-08-29T13:09:22.443Z,42.50
2017-08-29T13:11:50.064Z,42.10
2017-08-29T13:14:17.659Z,40.90
2017-08-29T13:16:45.245Z,40.00
2017-08-29T13:19:12.811Z,39.00
2017-08-29T13:21:40.399Z,38.70
2017-08-29T13:24:08.000Z,39.90
2017-08-29T13:26:35.594Z,40.70
2017-08-29T13:29:03.200Z,39.30
2017-08-29T13:31:30.794Z,41.10
2017-08-29T13:33:58.401Z,40.40
2017-08-29T13:36:25.987Z,39.30
2017-08-29T13:38:53.616Z,39.50
2017-08-29T13:41:21.207Z,40.30
2017-08-29T13:43:49.958Z,39.00
2017-08-29T13:46:17.550Z,39.20
2017-08-29T13:48:45.132Z,37.50
2017-08-29T13:51:12.756Z,37.10
2017-08-29T13:53:40.352Z,37.60
2017-08-29T13:56:08.028Z,40.00
2017-08-29T13:58:35.777Z,38.70
2017-08-29T14:01:03.403Z,37.70
2017-08-29T14:03:31.011Z,39.80
2017-08-29T14:05:58.744Z,41.30
2017-08-29T14:08:26.374Z,40.50
2017-08-29T14:10:54.936Z,41.00
2017-08-29T14:13:22.583Z,41.60
2017-08-29T14:15:50.760Z,40.10
2017-08-29T14:18:18.376Z,39.90
2017-08-29T14:20:46.015Z,39.00
2017-08-29T14:23:13.955Z,37.20
2017-08-29T14:25:41.602Z,39.30
2017-08-29T14:28:09.254Z,40.10
2017-08-29T14:30:36.936Z,40.00
2017-08-29T14:33:04.545Z,38.90
2017-08-29T14:35:32.170Z,39.60
2017-08-29T14:37:59.770Z,39.10
2017-08-29T14:40:27.414Z,40.20
2017-08-29T14:42:54.994Z,39.60
2017-08-29T14:45:22.759Z,39.60
2017-08-29T14:48:13.100Z,38.30
2017-08-29T14:50:41.348Z,39.30
2017-08-29T14:53:08.980Z,39.70
2017-08-29T14:55:36.574Z,39.10
2017-08-29T14:58:04.155Z,39.90
2017-08-29T15:00:31.757Z,38.00
2017-08-29T15:02:59.345Z,37.00
2017-08-29T15:05:26.928Z,37.10
2017-08-29T15:07:54.551Z,38.40
2017-08-29T15:10:22.140Z,38.10
2017-08-29T15:12:49.745Z,38.20
2017-08-29T15:15:17.359Z,40.00
2017-08-29T15:17:44.970Z,38.70
2017-08-29T15:20:16.786Z,39.40
2017-08-29T15:22:44.370Z,40.80
2017-08-29T15:25:11.990Z,41.20
2017-08-29T15:27:39.596Z,42.30
2017-08-29T15:30:07.216Z,42.40
2017-08-29T15:32:35.544Z,43.40
2017-08-29T15:35:03.135Z,43.90
2017-08-29T15:37:30.899Z,43.80
2017-08-29T15:39:59.349Z,42.50
2017-08-29T15:42:27.018Z,42.70
2017-08-29T15:44:54.604Z,43.70
2017-08-29T15:47:22.223Z,43.30
2017-08-29T15:49:49.840Z,43.40
2017-08-29T15:52:19.009Z,42.70
2017-08-29T15:54:46.667Z,42.80
2017-08-29T15:57:14.261Z,43.60
2017-08-29T15:59:41.881Z,43.50
2017-08-29T16:02:10.292Z,44.30
2017-08-29T16:04:37.896Z,42.80
2017-08-29T16:07:05.556Z,43.20
2017-08-29T16:09:33.154Z,42.40
2017-08-29T16:12:00.769Z,43.10
2017-08-29T16:14:28.400Z,42.70
2017-08-29T16:16:55.969Z,43.70
2017-08-29T16:19:23.560Z,43.30
2017-08-29T16:21:51.215Z,42.30
2017-08-29T16:24:18.855Z,42.00
2017-08-29T16:26:46.455Z,42.70
2017-08-29T16:29:14.124Z,42.80
2017-08-29T16:31:41.829Z,43.40
2017-08-29T16:34:09.449Z,44.00
2017-08-29T16:36:37.056Z,43.20
2017-08-29T16:39:04.699Z,44.20
2017-08-29T16:41:32.610Z,44.60
2017-08-29T16:44:00.200Z,44.90
2017-08-29T16:46:27.787Z,44.40
2017-08-29T16:48:55.400Z,45.00
2017-08-29T16:51:23.032Z,45.00
2017-08-29T16:53:50.619Z,45.30
2017-08-29T16:56:18.229Z,45.30
2017-08-29T16:58:45.858Z,45.30
2017-08-29T17:01:13.461Z,45.80
2017-08-29T17:03:41.119Z,45.60
2017-08-29T17:06:08.719Z,46.60
2017-08-29T17:08:36.333Z,47.10
2017-08-29T17:11:03.964Z,47.50
2017-08-29T17:13:31.563Z,48.50
2017-08-29T17:15:59.171Z,48.80
2017-08-29T17:18:26.786Z,48.60
2017-08-29T17:20:54.380Z,48.60
2017-08-29T17:23:21.972Z,49.10
2017-08-29T17:25:49.570Z,48.80
2017-08-29T17:28:17.191Z,49.60
2017-08-29T17:30:44.793Z,50.10
2017-08-29T17:33:12.387Z,49.40
2017-08-29T17:35:40.082Z,49.00
2017-08-29T17:38:07.758Z,49.80
2017-08-29T17:40:35.337Z,49.10
2017-08-29T17:43:02.924Z,50.00
2017-08-29T17:45:30.785Z,50.30
2017-08-29T17:47:58.442Z,50.00
2017-08-29T17:50:26.978Z,50.70
2017-08-29T17:52:54.671Z,50.50
2017-08-29T17:55:22.373Z,50.80
2017-08-29T17:57:49.947Z,51.90
2017-08-29T18:00:17.602Z,52.40
2017-08-29T18:02:45.205Z,54.60
2017-08-29T18:05:12.811Z,54.50
2017-08-29T18:07:40.420Z,53.50
2017-08-29T18:10:08.034Z,56.10
2017-08-29T18:12:35.629Z,54.90
2017-08-29T18:15:03.226Z,54.60
2017-08-29T18:17:30.846Z,54.00
2017-08-29T18:19:58.471Z,55.40
2017-08-29T18:22:26.078Z,55.70
2017-08-29T18:24:53.668Z,55.50
2017-08-29T18:27:21.287Z,56.30
2017-08-29T18:29:48.899Z,56.10
2017-08-29T18:32:17.465Z,56.30
2017-08-29T18:34:45.075Z,57.60
2017-08-29T18:37:12.708Z,57.00
2017-08-29T18:39:40.324Z,56.90
2017-08-29T18:42:07.914Z,58.00
2017-08-29T18:44:35.529Z,59.70
2017-08-29T18:47:03.097Z,60.00
2017-08-29T18:49:30.752Z,59.60
2017-08-29T18:51:58.342Z,60.00
2017-08-29T18:54:25.910Z,58.80
2017-08-29T18:56:53.487Z,60.00
2017-08-29T18:59:21.789Z,60.70
2017-08-29T19:01:49.468Z,60.70
2017-08-29T19:04:17.080Z,60.20
2017-08-29T19:06:44.713Z,60.90
2017-08-29T19:09:13.231Z,61.70
2017-08-29T19:11:40.812Z,62.10
2017-08-29T19:14:08.413Z,62.60
2017-08-29T19:16:36.019Z,63.80
2017-08-29T19:19:03.649Z,63.80
2017-08-29T19:21:31.260Z,65.70
2017-08-29T19:23:59.194Z,64.20
2017-08-29T19:26:27.638Z,64.20
2017-08-29T19:28:55.203Z,63.70
2017-08-29T19:31:22.781Z,63.70
2017-08-29T19:33:50.376Z,64.40
2017-08-29T19:36:18.005Z,63.20
2017-08-29T19:38:45.614Z,63.30
2017-08-29T19:41:13.259Z,63.30
2017-08-29T19:43:41.335Z,62.30
2017-08-29T19:46:08.941Z,60.60
2017-08-29T19:48:36.576Z,61.50
2017-08-29T19:51:04.192Z,62.30
2017-08-29T19:53:31.798Z,63.40
2017-08-29T19:55:59.443Z,62.30
2017-08-29T19:58:27.044Z,62.00
2017-08-29T20:00:54.695Z,60.90
2017-08-29T20:03:22.320Z,60.50
2017-08-29T20:05:49.937Z,59.60
2017-08-29T20:08:17.580Z,59.60
2017-08-29T20:10:45.879Z,60.20
2017-08-29T20:13:13.498Z,59.60
2017-08-29T20:15:41.073Z,58.70
2017-08-29T20:18:08.686Z,60.10
2017-08-29T20:20:36.318Z,59.30
2017-08-29T20:23:03.979Z,59.70
2017-08-29T20:25:31.566Z,59.50
2017-08-29T20:27:59.179Z,60.10
2017-08-29T20:30:26.813Z,58.20
2017-08-29T20:32:54.401Z,59.60
2017-08-29T20:35:22.014Z,57.60
2017-08-29T20:37:49.621Z,58.60
2017-08-29T20:40:17.236Z,58.60
2017-08-29T20:42:44.840Z,62.20
2017-08-29T20:45:12.466Z,65.20
2017-08-29T20:47:40.036Z,65.90
2017-08-29T20:50:07.652Z,67.30
2017-08-29T20:52:35.238Z,68.00
2017-08-29T20:55:02.861Z,68.10
2017-08-29T20:57:30.469Z,66.90
2017-08-29T20:59:58.056Z,67.60
2017-08-29T21:02:25.721Z,67.60
2017-08-29T21:04:53.321Z,67.70
2017-08-29T21:07:21.180Z,68.00
2017-08-29T21:09:48.735Z,68.00
2017-08-29T21:12:16.368Z,68.40
2017-08-29T21:14:43.979Z,67.70
2017-08-29T21:17:11.648Z,67.80
2017-08-29T21:19:39.253Z,67.90
2017-08-29T21:22:06.830Z,66.70
2017-08-29T21:24:34.450Z,67.10
2017-08-29T21:27:02.059Z,67.40
2017-08-29T21:29:29.648Z,67.10
2017-08-29T21:31:57.219Z,66.80
2017-08-29T21:34:24.838Z,66.80
2017-08-29T21:36:52.439Z,67.00
2017-08-29T21:39:20.053Z,67.60
2017-08-29T21:41:47.665Z,67.60
2017-08-29T21:44:16.682Z,68.30
2017-08-29T21:46:44.290Z,68.30
2017-08-29T21:49:11.885Z,68.20
2017-08-29T21:51:39.483Z,67.80
2017-08-29T21:54:07.098Z,68.10
2017-08-29T21:56:34.701Z,68.80
2017-08-29T21:59:02.289Z,69.40
2017-08-29T22:01:29.911Z,69.80
2017-08-29T22:03:57.505Z,69.00
2017-08-29T22:06:25.119Z,69.10
2017-08-29T22:08:53.648Z,69.00
2017-08-29T22:11:21.259Z,69.20
2017-08-29T22:13:48.863Z,69.70
2017-08-29T22:16:16.469Z,70.10
2017-08-29T22:18:44.083Z,70.10
2017-08-29T22:21:11.664Z,69.80
2017-08-29T22:23:39.288Z,70.40
2017-08-29T22:26:06.858Z,70.90
2017-08-29T22:28:34.472Z,70.60
2017-08-29T22:31:02.075Z,70.00
2017-08-29T22:33:29.684Z,70.80
2017-08-29T22:35:58.047Z,70.80
2017-08-29T22:38:26.356Z,71.00
2017-08-29T22:40:53.988Z,71.40
2017-08-29T22:43:21.625Z,70.80
2017-08-29T22:45:50.546Z,70.80
2017-08-29T22:48:18.108Z,70.40
2017-08-29T22:50:45.795Z,71.20
2017-08-29T22:53:13.368Z,70.50
2017-08-29T22:55:40.955Z,70.80
2017-08-29T22:58:08.584Z,70.90
2017-08-29T23:00:36.329Z,70.80
2017-08-29T23:03:03.924Z,71.10
2017-08-29T23:05:31.504Z,70.90
2017-08-29T23:07:59.110Z,71.00
2017-08-29T23:10:26.710Z,71.30
2017-08-29T23:12:54.302Z,71.30
2017-08-29T23:15:21.916Z,71.10
2017-08-29T23:17:49.514Z,71.20
2017-08-29T23:20:17.107Z,71.10
2017-08-29T23:22:44.698Z,71.40
2017-08-29T23:25:14.205Z,71.50
2017-08-29T23:27:41.826Z,71.90
2017-08-29T23:30:09.507Z,72.00
2017-08-29T23:32:37.082Z,71.70
2017-08-29T23:35:04.704Z,71.80
2017-08-29T23:37:32.400Z,71.80
2017-08-29T23:40:00.042Z,72.10
2017-08-29T23:42:28.498Z,72.30
2017-08-29T23:44:56.161Z,72.10
2017-08-29T23:47:23.811Z,72.50
2017-08-29T23:49:51.401Z,72.20
2017-08-29T23:52:19.062Z,72.60
2017-08-29T23:54:47.630Z,72.60
2017-08-29T23:57:15.229Z,72.40
2017-08-29T23:59:42.840Z,72.60
